sensor_id;sensor_type;location;lat;lon;timestamp;temperature;humidity
13409;DHT22;6775;49.574;11.170;2023-12-29T00:02:25;8.70;99.90
13409;DHT22;6775;49.574;11.170;2023-12-29T00:04:53;8.70;99.90
13409;DHT22;6775;49.574;11.170;2023-12-29T00:07:21;8.70;99.90
13409;DHT22;6775;49.574;11.170;2023-12-29T00:09:50;8.70;99.90
13409;DHT22;6775;49.574;11.170;2023-12-29T00:12:19;8.70;99.90
13409;DHT22;6775;49.574;11.170;2023-12-29T00:14:47;8.70;99.90
13409;DHT22;6775;49.574;11.170;2023-12-29T00:17:16;8.60;99.90
13409;DHT22;6775;49.574;11.170;2023-12-29T00:19:44;8.60;99.90
13409;DHT22;6775;49.574;11.170;2023-12-29T00:22:12;8.60;99.90
13409;DHT22;6775;49.574;11.170;2023-12-29T00:24:41;8.60;99.90
13409;DHT22;6775;49.574;11.170;2023-12-29T00:27:10;8.50;99.90
13409;DHT22;6775;49.574;11.170;2023-12-29T00:29:39;8.60;99.90
13409;DHT22;6775;49.574;11.170;2023-12-29T00:32:07;8.40;99.90
13409;DHT22;6775;49.574;11.170;2023-12-29T00:34:36;8.40;99.90
13409;DHT22;6775;49.574;11.170;2023-12-29T00:37:05;8.30;99.90
13409;DHT22;6775;49.574;11.170;2023-12-29T00:39:35;8.30;99.90
13409;DHT22;6775;49.574;11.170;2023-12-29T00:42:07;8.30;99.90
13409;DHT22;6775;49.574;11.170;2023-12-29T00:44:36;8.30;99.90
13409;DHT22;6775;49.574;11.170;2023-12-29T00:47:05;8.30;99.90
13409;DHT22;6775;49.574;11.170;2023-12-29T00:49:33;8.30;99.90
13409;DHT22;6775;49.574;11.170;2023-12-29T00:52:01;8.30;99.90
13409;DHT22;6775;49.574;11.170;2023-12-29T00:54:30;8.40;99.90
13409;DHT22;6775;49.574;11.170;2023-12-29T00:56:58;8.40;99.90
13409;DHT22;6775;49.574;11.170;2023-12-29T00:59:26;8.60;99.90
13409;DHT22;6775;49.574;11.170;2023-12-29T01:01:55;8.40;99.90
13409;DHT22;6775;49.574;11.170;2023-12-29T01:04:24;8.40;99.90
13409;DHT22;6775;49.574;11.170;2023-12-29T01:06:52;8.50;99.90
13409;DHT22;6775;49.574;11.170;2023-12-29T01:09:21;8.50;99.90
13409;DHT22;6775;49.574;11.170;2023-12-29T01:11:49;8.50;99.90
13409;DHT22;6775;49.574;11.170;2023-12-29T01:14:17;8.40;99.90
13409;DHT22;6775;49.574;11.170;2023-12-29T01:16:45;8.40;99.90
13409;DHT22;6775;49.574;11.170;2023-12-29T01:19:15;8.40;99.90
13409;DHT22;6775;49.574;11.170;2023-12-29T01:21:43;8.40;99.90
13409;DHT22;6775;49.574;11.170;2023-12-29T01:24:11;8.40;99.90
13409;DHT22;6775;49.574;11.170;2023-12-29T01:26:42;8.40;99.90
13409;DHT22;6775;49.574;11.170;2023-12-29T01:29:11;8.40;99.90
13409;DHT22;6775;49.574;11.170;2023-12-29T01:31:39;8.40;99.90
13409;DHT22;6775;49.574;11.170;2023-12-29T01:34:07;8.50;99.90
13409;DHT22;6775;49.574;11.170;2023-12-29T01:36:37;8.50;99.90
13409;DHT22;6775;49.574;11.170;2023-12-29T01:39:05;8.50;99.90
13409;DHT22;6775;49.574;11.170;2023-12-29T01:41:33;8.40;99.90
13409;DHT22;6775;49.574;11.170;2023-12-29T01:44:20;8.40;99.90
13409;DHT22;6775;49.574;11.170;2023-12-29T01:46:50;8.40;99.90
13409;DHT22;6775;49.574;11.170;2023-12-29T01:49:20;8.50;99.90
13409;DHT22;6775;49.574;11.170;2023-12-29T01:51:52;8.40;99.90
13409;DHT22;6775;49.574;11.170;2023-12-29T01:54:24;8.40;99.90
13409;DHT22;6775;49.574;11.170;2023-12-29T01:56:57;8.40;99.90
13409;DHT22;6775;49.574;11.170;2023-12-29T01:59:29;8.50;99.90
13409;DHT22;6775;49.574;11.170;2023-12-29T02:01:58;8.50;99.90
13409;DHT22;6775;49.574;11.170;2023-12-29T02:04:27;8.50;99.90
13409;DHT22;6775;49.574;11.170;2023-12-29T02:06:57;8.50;99.90
13409;DHT22;6775;49.574;11.170;2023-12-29T02:09:25;8.50;99.90
13409;DHT22;6775;49.574;11.170;2023-12-29T02:11:54;8.50;99.90
13409;DHT22;6775;49.574;11.170;2023-12-29T02:14:22;8.50;99.90
13409;DHT22;6775;49.574;11.170;2023-12-29T02:16:56;8.50;99.90
13409;DHT22;6775;49.574;11.170;2023-12-29T02:19:37;8.50;99.90
13409;DHT22;6775;49.574;11.170;2023-12-29T02:22:10;8.60;99.90
13409;DHT22;6775;49.574;11.170;2023-12-29T02:24:39;8.60;99.90
13409;DHT22;6775;49.574;11.170;2023-12-29T02:27:27;8.70;99.90
13409;DHT22;6775;49.574;11.170;2023-12-29T02:30:09;8.70;99.90
13409;DHT22;6775;49.574;11.170;2023-12-29T02:32:43;8.70;99.90
13409;DHT22;6775;49.574;11.170;2023-12-29T02:35:17;8.70;99.90
13409;DHT22;6775;49.574;11.170;2023-12-29T02:37:55;8.80;99.90
13409;DHT22;6775;49.574;11.170;2023-12-29T02:40:25;8.80;99.90
13409;DHT22;6775;49.574;11.170;2023-12-29T02:42:55;8.70;99.90
13409;DHT22;6775;49.574;11.170;2023-12-29T02:45:23;8.70;99.90
13409;DHT22;6775;49.574;11.170;2023-12-29T02:47:52;8.70;99.90
13409;DHT22;6775;49.574;11.170;2023-12-29T02:50:20;8.70;99.90
13409;DHT22;6775;49.574;11.170;2023-12-29T02:52:49;8.60;99.90
13409;DHT22;6775;49.574;11.170;2023-12-29T02:55:17;8.60;99.90
13409;DHT22;6775;49.574;11.170;2023-12-29T02:57:45;8.50;99.90
13409;DHT22;6775;49.574;11.170;2023-12-29T03:00:15;8.50;99.90
13409;DHT22;6775;49.574;11.170;2023-12-29T03:02:44;8.40;99.90
13409;DHT22;6775;49.574;11.170;2023-12-29T03:05:12;8.30;99.90
13409;DHT22;6775;49.574;11.170;2023-12-29T03:07:41;8.20;99.90
13409;DHT22;6775;49.574;11.170;2023-12-29T03:10:09;8.20;99.90
13409;DHT22;6775;49.574;11.170;2023-12-29T03:12:38;8.20;99.90
13409;DHT22;6775;49.574;11.170;2023-12-29T03:15:06;8.10;99.90
13409;DHT22;6775;49.574;11.170;2023-12-29T03:17:36;8.00;99.90
13409;DHT22;6775;49.574;11.170;2023-12-29T03:20:06;8.00;99.90
13409;DHT22;6775;49.574;11.170;2023-12-29T03:22:35;7.90;99.90
13409;DHT22;6775;49.574;11.170;2023-12-29T03:25:04;7.80;99.90
13409;DHT22;6775;49.574;11.170;2023-12-29T03:27:32;7.80;99.90
13409;DHT22;6775;49.574;11.170;2023-12-29T03:30:01;7.80;99.90
13409;DHT22;6775;49.574;11.170;2023-12-29T03:32:29;7.70;99.90
13409;DHT22;6775;49.574;11.170;2023-12-29T03:34:58;7.70;99.90
13409;DHT22;6775;49.574;11.170;2023-12-29T03:37:27;7.60;99.90
13409;DHT22;6775;49.574;11.170;2023-12-29T03:39:56;7.60;99.90
13409;DHT22;6775;49.574;11.170;2023-12-29T03:42:24;7.60;99.90
13409;DHT22;6775;49.574;11.170;2023-12-29T03:44:52;7.60;99.90
13409;DHT22;6775;49.574;11.170;2023-12-29T03:47:20;7.60;99.90
13409;DHT22;6775;49.574;11.170;2023-12-29T03:49:49;7.60;99.90
13409;DHT22;6775;49.574;11.170;2023-12-29T03:52:18;7.50;99.90
13409;DHT22;6775;49.574;11.170;2023-12-29T03:54:46;7.50;99.90
13409;DHT22;6775;49.574;11.170;2023-12-29T03:57:15;7.50;99.90
13409;DHT22;6775;49.574;11.170;2023-12-29T03:59:43;7.50;99.90
13409;DHT22;6775;49.574;11.170;2023-12-29T04:02:11;7.50;99.90
13409;DHT22;6775;49.574;11.170;2023-12-29T04:04:39;7.50;99.90
13409;DHT22;6775;49.574;11.170;2023-12-29T04:07:08;7.50;99.90
13409;DHT22;6775;49.574;11.170;2023-12-29T04:09:37;7.50;99.90
13409;DHT22;6775;49.574;11.170;2023-12-29T04:12:06;7.40;99.90
13409;DHT22;6775;49.574;11.170;2023-12-29T04:14:34;7.40;99.90
13409;DHT22;6775;49.574;11.170;2023-12-29T04:17:03;7.50;99.90
13409;DHT22;6775;49.574;11.170;2023-12-29T04:19:40;7.40;99.90
13409;DHT22;6775;49.574;11.170;2023-12-29T04:22:08;7.50;99.90
13409;DHT22;6775;49.574;11.170;2023-12-29T04:24:38;7.40;99.90
13409;DHT22;6775;49.574;11.170;2023-12-29T04:27:07;7.40;99.90
13409;DHT22;6775;49.574;11.170;2023-12-29T04:29:35;7.50;99.90
13409;DHT22;6775;49.574;11.170;2023-12-29T04:32:04;7.40;99.90
13409;DHT22;6775;49.574;11.170;2023-12-29T04:34:32;7.40;99.90
13409;DHT22;6775;49.574;11.170;2023-12-29T04:37:00;7.40;99.90
13409;DHT22;6775;49.574;11.170;2023-12-29T04:39:29;7.40;99.90
13409;DHT22;6775;49.574;11.170;2023-12-29T04:41:58;7.40;99.90
13409;DHT22;6775;49.574;11.170;2023-12-29T04:44:26;7.40;99.90
13409;DHT22;6775;49.574;11.170;2023-12-29T04:46:54;7.40;99.90
13409;DHT22;6775;49.574;11.170;2023-12-29T04:49:23;7.30;99.90
13409;DHT22;6775;49.574;11.170;2023-12-29T04:51:51;7.40;99.90
13409;DHT22;6775;49.574;11.170;2023-12-29T04:54:19;7.40;99.90
13409;DHT22;6775;49.574;11.170;2023-12-29T04:56:47;7.40;99.90
13409;DHT22;6775;49.574;11.170;2023-12-29T04:59:17;7.40;99.90
13409;DHT22;6775;49.574;11.170;2023-12-29T05:01:45;7.50;99.90
13409;DHT22;6775;49.574;11.170;2023-12-29T05:04:13;7.50;99.90
13409;DHT22;6775;49.574;11.170;2023-12-29T05:06:43;7.50;99.90
13409;DHT22;6775;49.574;11.170;2023-12-29T05:09:11;7.50;99.90
13409;DHT22;6775;49.574;11.170;2023-12-29T05:11:40;7.60;99.90
13409;DHT22;6775;49.574;11.170;2023-12-29T05:14:08;7.60;99.90
13409;DHT22;6775;49.574;11.170;2023-12-29T05:16:37;7.60;99.90
13409;DHT22;6775;49.574;11.170;2023-12-29T05:19:06;7.70;99.90
13409;DHT22;6775;49.574;11.170;2023-12-29T05:21:34;7.70;99.90
13409;DHT22;6775;49.574;11.170;2023-12-29T05:24:02;7.80;99.90
13409;DHT22;6775;49.574;11.170;2023-12-29T05:26:32;7.80;99.90
13409;DHT22;6775;49.574;11.170;2023-12-29T05:29:00;7.80;99.90
13409;DHT22;6775;49.574;11.170;2023-12-29T05:31:29;7.80;99.90
13409;DHT22;6775;49.574;11.170;2023-12-29T05:33:58;7.80;99.90
13409;DHT22;6775;49.574;11.170;2023-12-29T05:36:26;7.80;99.90
13409;DHT22;6775;49.574;11.170;2023-12-29T05:38:56;7.80;99.90
13409;DHT22;6775;49.574;11.170;2023-12-29T05:41:24;7.70;99.90
13409;DHT22;6775;49.574;11.170;2023-12-29T05:43:52;7.70;99.90
13409;DHT22;6775;49.574;11.170;2023-12-29T05:46:20;7.70;99.90
13409;DHT22;6775;49.574;11.170;2023-12-29T05:48:48;7.80;99.90
13409;DHT22;6775;49.574;11.170;2023-12-29T05:51:20;7.80;99.90
13409;DHT22;6775;49.574;11.170;2023-12-29T05:53:48;7.90;99.90
13409;DHT22;6775;49.574;11.170;2023-12-29T05:56:16;7.90;99.90
13409;DHT22;6775;49.574;11.170;2023-12-29T05:58:46;7.90;99.90
13409;DHT22;6775;49.574;11.170;2023-12-29T06:01:15;7.90;99.90
13409;DHT22;6775;49.574;11.170;2023-12-29T06:03:43;7.90;99.90
13409;DHT22;6775;49.574;11.170;2023-12-29T06:06:11;7.90;99.90
13409;DHT22;6775;49.574;11.170;2023-12-29T06:08:41;7.80;99.90
13409;DHT22;6775;49.574;11.170;2023-12-29T06:11:14;7.90;99.90
13409;DHT22;6775;49.574;11.170;2023-12-29T06:13:43;7.80;99.90
13409;DHT22;6775;49.574;11.170;2023-12-29T06:16:17;7.80;99.90
13409;DHT22;6775;49.574;11.170;2023-12-29T06:18:46;7.80;99.90
13409;DHT22;6775;49.574;11.170;2023-12-29T06:21:15;7.80;99.90
13409;DHT22;6775;49.574;11.170;2023-12-29T06:23:45;7.80;99.90
13409;DHT22;6775;49.574;11.170;2023-12-29T06:26:14;7.70;99.90
13409;DHT22;6775;49.574;11.170;2023-12-29T06:28:43;7.50;99.90
13409;DHT22;6775;49.574;11.170;2023-12-29T06:31:12;7.40;99.90
13409;DHT22;6775;49.574;11.170;2023-12-29T06:33:41;7.40;99.90
13409;DHT22;6775;49.574;11.170;2023-12-29T06:36:09;7.30;99.90
13409;DHT22;6775;49.574;11.170;2023-12-29T06:38:38;7.20;99.90
13409;DHT22;6775;49.574;11.170;2023-12-29T06:41:07;7.10;99.90
13409;DHT22;6775;49.574;11.170;2023-12-29T06:43:35;7.10;99.90
13409;DHT22;6775;49.574;11.170;2023-12-29T06:46:04;7.00;99.90
13409;DHT22;6775;49.574;11.170;2023-12-29T06:48:33;7.00;99.90
13409;DHT22;6775;49.574;11.170;2023-12-29T06:51:01;7.00;99.90
13409;DHT22;6775;49.574;11.170;2023-12-29T06:53:29;7.00;99.90
13409;DHT22;6775;49.574;11.170;2023-12-29T06:55:58;7.10;99.90
13409;DHT22;6775;49.574;11.170;2023-12-29T06:58:27;7.10;99.90
13409;DHT22;6775;49.574;11.170;2023-12-29T07:00:55;7.10;99.90
13409;DHT22;6775;49.574;11.170;2023-12-29T07:03:24;7.20;99.90
13409;DHT22;6775;49.574;11.170;2023-12-29T07:05:52;7.30;99.90
13409;DHT22;6775;49.574;11.170;2023-12-29T07:08:20;7.30;99.90
13409;DHT22;6775;49.574;11.170;2023-12-29T07:10:48;7.40;99.90
13409;DHT22;6775;49.574;11.170;2023-12-29T07:13:17;7.40;99.90
13409;DHT22;6775;49.574;11.170;2023-12-29T07:15:47;7.40;99.90
13409;DHT22;6775;49.574;11.170;2023-12-29T07:18:16;7.40;99.90
13409;DHT22;6775;49.574;11.170;2023-12-29T07:20:44;7.50;99.90
13409;DHT22;6775;49.574;11.170;2023-12-29T07:23:12;7.50;99.90
13409;DHT22;6775;49.574;11.170;2023-12-29T07:25:41;7.50;99.90
13409;DHT22;6775;49.574;11.170;2023-12-29T07:28:12;7.50;99.90
13409;DHT22;6775;49.574;11.170;2023-12-29T07:30:40;7.50;99.90
13409;DHT22;6775;49.574;11.170;2023-12-29T07:33:10;7.50;99.90
13409;DHT22;6775;49.574;11.170;2023-12-29T07:35:38;7.50;99.90
13409;DHT22;6775;49.574;11.170;2023-12-29T07:38:06;7.50;99.90
13409;DHT22;6775;49.574;11.170;2023-12-29T07:40:35;7.50;99.90
13409;DHT22;6775;49.574;11.170;2023-12-29T07:43:04;7.50;99.90
13409;DHT22;6775;49.574;11.170;2023-12-29T07:45:32;7.50;99.90
13409;DHT22;6775;49.574;11.170;2023-12-29T07:48:02;7.60;99.90
13409;DHT22;6775;49.574;11.170;2023-12-29T07:50:37;7.60;99.90
13409;DHT22;6775;49.574;11.170;2023-12-29T07:53:06;7.60;99.90
13409;DHT22;6775;49.574;11.170;2023-12-29T07:55:37;7.60;99.90
13409;DHT22;6775;49.574;11.170;2023-12-29T07:58:06;7.70;99.90
13409;DHT22;6775;49.574;11.170;2023-12-29T08:00:36;7.70;99.90
13409;DHT22;6775;49.574;11.170;2023-12-29T08:03:05;7.80;99.90
13409;DHT22;6775;49.574;11.170;2023-12-29T08:05:34;7.80;99.90
13409;DHT22;6775;49.574;11.170;2023-12-29T08:08:04;7.80;99.90
13409;DHT22;6775;49.574;11.170;2023-12-29T08:10:32;7.80;99.90
13409;DHT22;6775;49.574;11.170;2023-12-29T08:13:00;7.90;99.90
13409;DHT22;6775;49.574;11.170;2023-12-29T08:15:28;7.90;99.90
13409;DHT22;6775;49.574;11.170;2023-12-29T08:17:57;8.00;99.90
13409;DHT22;6775;49.574;11.170;2023-12-29T08:20:25;8.00;99.90
13409;DHT22;6775;49.574;11.170;2023-12-29T08:22:53;8.10;99.90
13409;DHT22;6775;49.574;11.170;2023-12-29T08:25:23;8.00;99.90
13409;DHT22;6775;49.574;11.170;2023-12-29T08:27:51;8.00;99.90
13409;DHT22;6775;49.574;11.170;2023-12-29T08:30:19;8.10;99.90
13409;DHT22;6775;49.574;11.170;2023-12-29T08:32:47;8.20;99.90
13409;DHT22;6775;49.574;11.170;2023-12-29T08:35:16;8.20;99.90
13409;DHT22;6775;49.574;11.170;2023-12-29T08:37:44;8.30;99.90
13409;DHT22;6775;49.574;11.170;2023-12-29T08:40:12;8.40;99.90
13409;DHT22;6775;49.574;11.170;2023-12-29T08:42:42;8.50;99.90
13409;DHT22;6775;49.574;11.170;2023-12-29T08:45:10;8.70;99.90
13409;DHT22;6775;49.574;11.170;2023-12-29T08:47:38;8.70;99.90
13409;DHT22;6775;49.574;11.170;2023-12-29T08:50:07;8.80;99.90
13409;DHT22;6775;49.574;11.170;2023-12-29T08:52:35;8.80;99.90
13409;DHT22;6775;49.574;11.170;2023-12-29T08:55:04;8.80;99.90
13409;DHT22;6775;49.574;11.170;2023-12-29T08:57:33;8.90;99.90
13409;DHT22;6775;49.574;11.170;2023-12-29T09:00:03;9.00;99.90
13409;DHT22;6775;49.574;11.170;2023-12-29T09:02:32;9.10;99.90
13409;DHT22;6775;49.574;11.170;2023-12-29T09:05:00;9.10;99.90
13409;DHT22;6775;49.574;11.170;2023-12-29T09:07:28;9.20;99.90
13409;DHT22;6775;49.574;11.170;2023-12-29T09:09:57;9.20;99.90
13409;DHT22;6775;49.574;11.170;2023-12-29T09:12:25;9.30;99.90
13409;DHT22;6775;49.574;11.170;2023-12-29T09:14:53;9.40;99.90
13409;DHT22;6775;49.574;11.170;2023-12-29T09:17:23;9.50;99.90
13409;DHT22;6775;49.574;11.170;2023-12-29T09:19:51;9.60;99.90
13409;DHT22;6775;49.574;11.170;2023-12-29T09:22:32;9.60;99.90
13409;DHT22;6775;49.574;11.170;2023-12-29T09:25:00;9.80;99.90
13409;DHT22;6775;49.574;11.170;2023-12-29T09:27:28;9.60;99.90
13409;DHT22;6775;49.574;11.170;2023-12-29T09:29:57;9.70;99.90
13409;DHT22;6775;49.574;11.170;2023-12-29T09:32:26;9.80;99.90
13409;DHT22;6775;49.574;11.170;2023-12-29T09:34:54;9.80;99.90
13409;DHT22;6775;49.574;11.170;2023-12-29T09:37:22;10.10;99.90
13409;DHT22;6775;49.574;11.170;2023-12-29T09:39:51;10.40;99.90
13409;DHT22;6775;49.574;11.170;2023-12-29T09:42:20;10.70;99.90
13409;DHT22;6775;49.574;11.170;2023-12-29T09:44:50;10.90;99.90
13409;DHT22;6775;49.574;11.170;2023-12-29T09:47:22;11.00;99.90
13409;DHT22;6775;49.574;11.170;2023-12-29T09:49:54;10.80;99.90
13409;DHT22;6775;49.574;11.170;2023-12-29T09:52:22;10.70;99.90
13409;DHT22;6775;49.574;11.170;2023-12-29T09:54:52;10.50;99.90
13409;DHT22;6775;49.574;11.170;2023-12-29T09:57:20;10.40;99.90
13409;DHT22;6775;49.574;11.170;2023-12-29T09:59:49;10.30;99.90
13409;DHT22;6775;49.574;11.170;2023-12-29T10:02:20;10.20;99.90
13409;DHT22;6775;49.574;11.170;2023-12-29T10:04:50;10.10;99.90
13409;DHT22;6775;49.574;11.170;2023-12-29T10:07:23;10.00;99.90
13409;DHT22;6775;49.574;11.170;2023-12-29T10:09:54;10.10;99.90
13409;DHT22;6775;49.574;11.170;2023-12-29T10:12:25;10.00;99.90
13409;DHT22;6775;49.574;11.170;2023-12-29T10:15:03;10.00;99.90
13409;DHT22;6775;49.574;11.170;2023-12-29T10:17:43;10.10;99.90
13409;DHT22;6775;49.574;11.170;2023-12-29T10:20:36;10.20;99.90
13409;DHT22;6775;49.574;11.170;2023-12-29T10:23:18;10.20;99.90
13409;DHT22;6775;49.574;11.170;2023-12-29T10:25:48;10.30;99.90
13409;DHT22;6775;49.574;11.170;2023-12-29T10:28:18;10.20;99.90
13409;DHT22;6775;49.574;11.170;2023-12-29T10:30:47;10.20;99.90
13409;DHT22;6775;49.574;11.170;2023-12-29T10:33:19;10.10;99.90
13409;DHT22;6775;49.574;11.170;2023-12-29T10:35:56;10.10;99.90
13409;DHT22;6775;49.574;11.170;2023-12-29T10:38:31;10.10;99.90
13409;DHT22;6775;49.574;11.170;2023-12-29T10:41:11;10.20;99.90
13409;DHT22;6775;49.574;11.170;2023-12-29T10:43:41;10.10;99.90
13409;DHT22;6775;49.574;11.170;2023-12-29T10:46:10;10.00;99.90
13409;DHT22;6775;49.574;11.170;2023-12-29T10:48:39;10.00;99.90
13409;DHT22;6775;49.574;11.170;2023-12-29T10:51:08;10.00;99.90
13409;DHT22;6775;49.574;11.170;2023-12-29T10:53:37;9.90;99.90
13409;DHT22;6775;49.574;11.170;2023-12-29T10:56:16;9.90;99.90
13409;DHT22;6775;49.574;11.170;2023-12-29T10:58:57;9.90;99.90
13409;DHT22;6775;49.574;11.170;2023-12-29T11:01:27;9.90;99.90
13409;DHT22;6775;49.574;11.170;2023-12-29T11:03:59;9.90;99.90
13409;DHT22;6775;49.574;11.170;2023-12-29T11:06:30;10.00;99.90
13409;DHT22;6775;49.574;11.170;2023-12-29T11:09:10;10.00;99.90
13409;DHT22;6775;49.574;11.170;2023-12-29T11:11:39;10.20;99.90
13409;DHT22;6775;49.574;11.170;2023-12-29T11:14:10;10.40;99.90
13409;DHT22;6775;49.574;11.170;2023-12-29T11:16:39;10.40;99.90
13409;DHT22;6775;49.574;11.170;2023-12-29T11:19:11;10.40;99.90
13409;DHT22;6775;49.574;11.170;2023-12-29T11:21:42;10.50;99.90
13409;DHT22;6775;49.574;11.170;2023-12-29T11:24:13;10.40;99.90
13409;DHT22;6775;49.574;11.170;2023-12-29T11:26:51;10.20;99.90
13409;DHT22;6775;49.574;11.170;2023-12-29T11:29:20;10.20;99.90
13409;DHT22;6775;49.574;11.170;2023-12-29T11:31:52;10.20;99.90
13409;DHT22;6775;49.574;11.170;2023-12-29T11:34:24;10.10;99.90
13409;DHT22;6775;49.574;11.170;2023-12-29T11:37:15;10.10;99.90
13409;DHT22;6775;49.574;11.170;2023-12-29T11:40:01;10.10;99.90
13409;DHT22;6775;49.574;11.170;2023-12-29T11:42:40;10.10;99.90
13409;DHT22;6775;49.574;11.170;2023-12-29T11:45:35;10.10;99.90
13409;DHT22;6775;49.574;11.170;2023-12-29T11:48:04;10.10;99.90
13409;DHT22;6775;49.574;11.170;2023-12-29T11:50:34;10.00;99.90
13409;DHT22;6775;49.574;11.170;2023-12-29T11:53:04;10.10;99.90
13409;DHT22;6775;49.574;11.170;2023-12-29T11:55:35;10.10;99.90
13409;DHT22;6775;49.574;11.170;2023-12-29T12:00:52;10.30;99.90
13409;DHT22;6775;49.574;11.170;2023-12-29T12:03:24;10.40;99.90
13409;DHT22;6775;49.574;11.170;2023-12-29T12:05:55;10.40;99.90
13409;DHT22;6775;49.574;11.170;2023-12-29T12:08:30;10.40;99.90
13409;DHT22;6775;49.574;11.170;2023-12-29T12:14:47;10.60;99.90
13409;DHT22;6775;49.574;11.170;2023-12-29T12:17:33;10.60;99.90
13409;DHT22;6775;49.574;11.170;2023-12-29T12:20:06;10.70;99.90
13409;DHT22;6775;49.574;11.170;2023-12-29T12:22:36;10.70;99.90
13409;DHT22;6775;49.574;11.170;2023-12-29T12:25:06;10.80;99.90
13409;DHT22;6775;49.574;11.170;2023-12-29T12:27:38;10.80;99.90
13409;DHT22;6775;49.574;11.170;2023-12-29T12:30:07;10.80;99.90
13409;DHT22;6775;49.574;11.170;2023-12-29T12:32:38;10.90;99.90
13409;DHT22;6775;49.574;11.170;2023-12-29T12:35:13;11.10;99.90
13409;DHT22;6775;49.574;11.170;2023-12-29T12:37:45;11.10;99.90
13409;DHT22;6775;49.574;11.170;2023-12-29T12:40:24;11.10;99.90
13409;DHT22;6775;49.574;11.170;2023-12-29T12:42:55;11.10;99.90
13409;DHT22;6775;49.574;11.170;2023-12-29T12:45:26;11.10;99.90
13409;DHT22;6775;49.574;11.170;2023-12-29T12:48:00;11.20;99.90
13409;DHT22;6775;49.574;11.170;2023-12-29T12:50:31;11.10;99.90
13409;DHT22;6775;49.574;11.170;2023-12-29T12:53:00;11.10;99.90
13409;DHT22;6775;49.574;11.170;2023-12-29T12:55:35;11.20;99.90
13409;DHT22;6775;49.574;11.170;2023-12-29T12:58:05;12.30;99.90
13409;DHT22;6775;49.574;11.170;2023-12-29T13:00:34;13.10;99.90
13409;DHT22;6775;49.574;11.170;2023-12-29T13:03:04;13.20;99.90
13409;DHT22;6775;49.574;11.170;2023-12-29T13:05:33;12.90;99.90
13409;DHT22;6775;49.574;11.170;2023-12-29T13:08:03;12.60;99.90
13409;DHT22;6775;49.574;11.170;2023-12-29T13:10:32;12.30;99.90
13409;DHT22;6775;49.574;11.170;2023-12-29T13:13:00;12.00;99.90
13409;DHT22;6775;49.574;11.170;2023-12-29T13:15:33;11.70;99.90
13409;DHT22;6775;49.574;11.170;2023-12-29T13:18:01;11.50;99.90
13409;DHT22;6775;49.574;11.170;2023-12-29T13:20:29;11.40;99.90
13409;DHT22;6775;49.574;11.170;2023-12-29T13:23:11;11.30;99.90
13409;DHT22;6775;49.574;11.170;2023-12-29T13:25:39;11.20;99.90
13409;DHT22;6775;49.574;11.170;2023-12-29T13:28:12;11.10;99.90
13409;DHT22;6775;49.574;11.170;2023-12-29T13:30:41;11.10;99.90
13409;DHT22;6775;49.574;11.170;2023-12-29T13:33:14;11.00;99.90
13409;DHT22;6775;49.574;11.170;2023-12-29T13:35:48;10.90;99.90
13409;DHT22;6775;49.574;11.170;2023-12-29T13:38:35;10.90;99.90
13409;DHT22;6775;49.574;11.170;2023-12-29T13:41:08;10.80;99.90
13409;DHT22;6775;49.574;11.170;2023-12-29T13:43:41;10.80;99.90
13409;DHT22;6775;49.574;11.170;2023-12-29T13:46:13;10.70;99.90
13409;DHT22;6775;49.574;11.170;2023-12-29T13:48:45;10.70;99.90
13409;DHT22;6775;49.574;11.170;2023-12-29T13:51:21;10.70;99.90
13409;DHT22;6775;49.574;11.170;2023-12-29T13:53:58;10.70;99.90
13409;DHT22;6775;49.574;11.170;2023-12-29T13:56:27;10.60;99.90
13409;DHT22;6775;49.574;11.170;2023-12-29T13:58:56;10.60;99.90
13409;DHT22;6775;49.574;11.170;2023-12-29T14:01:40;10.60;99.90
13409;DHT22;6775;49.574;11.170;2023-12-29T14:04:11;10.60;99.90
13409;DHT22;6775;49.574;11.170;2023-12-29T14:06:43;10.60;99.90
13409;DHT22;6775;49.574;11.170;2023-12-29T14:09:19;10.50;99.90
13409;DHT22;6775;49.574;11.170;2023-12-29T14:11:48;10.60;99.90
13409;DHT22;6775;49.574;11.170;2023-12-29T14:14:22;10.60;99.90
13409;DHT22;6775;49.574;11.170;2023-12-29T14:16:52;10.60;99.90
13409;DHT22;6775;49.574;11.170;2023-12-29T14:19:20;10.60;99.90
13409;DHT22;6775;49.574;11.170;2023-12-29T14:21:52;10.60;99.90
13409;DHT22;6775;49.574;11.170;2023-12-29T14:24:22;10.60;99.90
13409;DHT22;6775;49.574;11.170;2023-12-29T14:26:55;10.60;99.90
13409;DHT22;6775;49.574;11.170;2023-12-29T14:29:26;10.60;99.90
13409;DHT22;6775;49.574;11.170;2023-12-29T14:31:55;10.60;99.90
13409;DHT22;6775;49.574;11.170;2023-12-29T14:34:23;10.60;99.90
13409;DHT22;6775;49.574;11.170;2023-12-29T14:36:51;10.60;99.90
13409;DHT22;6775;49.574;11.170;2023-12-29T14:39:20;10.60;99.90
13409;DHT22;6775;49.574;11.170;2023-12-29T14:41:48;10.50;99.90
13409;DHT22;6775;49.574;11.170;2023-12-29T14:44:16;10.50;99.90
13409;DHT22;6775;49.574;11.170;2023-12-29T14:46:45;10.50;99.90
13409;DHT22;6775;49.574;11.170;2023-12-29T14:49:14;10.40;99.90
13409;DHT22;6775;49.574;11.170;2023-12-29T14:51:42;10.40;99.90
13409;DHT22;6775;49.574;11.170;2023-12-29T14:54:10;10.40;99.90
13409;DHT22;6775;49.574;11.170;2023-12-29T14:56:38;10.40;99.90
13409;DHT22;6775;49.574;11.170;2023-12-29T14:59:06;10.20;99.90
13409;DHT22;6775;49.574;11.170;2023-12-29T15:01:37;10.20;99.90
13409;DHT22;6775;49.574;11.170;2023-12-29T15:04:07;10.20;99.90
13409;DHT22;6775;49.574;11.170;2023-12-29T15:06:38;9.60;99.90
13409;DHT22;6775;49.574;11.170;2023-12-29T15:09:06;10.20;99.90
13409;DHT22;6775;49.574;11.170;2023-12-29T15:11:37;10.10;99.90
13409;DHT22;6775;49.574;11.170;2023-12-29T15:14:05;10.00;99.90
13409;DHT22;6775;49.574;11.170;2023-12-29T15:16:33;10.00;99.90
13409;DHT22;6775;49.574;11.170;2023-12-29T15:19:01;10.00;99.90
13409;DHT22;6775;49.574;11.170;2023-12-29T15:21:32;10.00;99.90
13409;DHT22;6775;49.574;11.170;2023-12-29T15:24:00;10.00;99.90
13409;DHT22;6775;49.574;11.170;2023-12-29T15:26:28;10.00;99.90
13409;DHT22;6775;49.574;11.170;2023-12-29T15:28:56;9.90;99.90
13409;DHT22;6775;49.574;11.170;2023-12-29T15:31:24;10.00;99.90
13409;DHT22;6775;49.574;11.170;2023-12-29T15:33:53;9.90;99.90
13409;DHT22;6775;49.574;11.170;2023-12-29T15:36:21;9.80;99.90
13409;DHT22;6775;49.574;11.170;2023-12-29T15:38:52;9.80;99.90
13409;DHT22;6775;49.574;11.170;2023-12-29T15:41:20;9.80;99.90
13409;DHT22;6775;49.574;11.170;2023-12-29T15:43:48;9.70;99.90
13409;DHT22;6775;49.574;11.170;2023-12-29T15:46:18;9.70;99.90
13409;DHT22;6775;49.574;11.170;2023-12-29T15:48:48;9.70;99.90
13409;DHT22;6775;49.574;11.170;2023-12-29T15:51:17;9.60;99.90
13409;DHT22;6775;49.574;11.170;2023-12-29T15:53:45;9.60;99.90
13409;DHT22;6775;49.574;11.170;2023-12-29T15:56:18;9.70;99.90
13409;DHT22;6775;49.574;11.170;2023-12-29T15:58:46;9.60;99.90
13409;DHT22;6775;49.574;11.170;2023-12-29T16:01:20;9.60;99.90
13409;DHT22;6775;49.574;11.170;2023-12-29T16:03:50;9.60;99.90
13409;DHT22;6775;49.574;11.170;2023-12-29T16:06:20;9.60;99.90